Time;durP1;ratioP1;P1;durP2;ratioP2;P2;SDS_P1;SDS_P2;PMS_P1;PMS_P2;Temp;Humidity;BMP_temperature;BMP_pressure;BME280_temperature;BME280_humidity;BME280_pressure;Samples;Min_cycle;Max_cycle;Signal;HPM_P1;HPM_P2
2023/08/27 00:01:19;;;;;;;10.93;9.00;;;14.60;99.90;;;;;;5120740;28;20475;-57
2023/08/27 00:03:45;;;;;;;11.90;8.70;;;14.60;99.90;;;;;;5122010;28;20044;-57
2023/08/27 00:06:10;;;;;;;10.68;8.73;;;14.60;99.90;;;;;;5121018;28;20134;-57
2023/08/27 00:08:36;;;;;;;11.20;8.93;;;14.60;99.90;;;;;;5121440;28;20058;-57
2023/08/27 00:11:04;;;;;;;12.95;9.15;;;14.60;99.90;;;;;;5121333;28;20115;-57
2023/08/27 00:13:30;;;;;;;10.55;8.98;;;14.60;99.90;;;;;;5120268;28;20059;-57
2023/08/27 00:15:56;;;;;;;12.82;9.65;;;14.60;99.90;;;;;;5121415;28;20479;-57
2023/08/27 00:18:22;;;;;;;11.55;8.43;;;14.50;99.90;;;;;;5120193;28;20039;-57
2023/08/27 00:20:48;;;;;;;11.45;9.15;;;14.50;99.90;;;;;;5121610;28;20040;-56
2023/08/27 00:23:15;;;;;;;13.18;9.40;;;14.60;99.90;;;;;;5120839;28;20090;-58
2023/08/27 00:25:43;;;;;;;12.07;8.93;;;14.50;99.90;;;;;;5120904;28;20035;-58
2023/08/27 00:28:15;;;;;;;10.70;8.60;;;14.60;99.90;;;;;;5120647;28;20054;-58
2023/08/27 00:30:41;;;;;;;;;;;14.60;99.90;;;;;;5120908;28;20036;-57
2023/08/27 00:33:07;;;;;;;10.60;7.97;;;14.50;99.90;;;;;;5120973;28;20368;-59
2023/08/27 00:35:33;;;;;;;11.18;9.27;;;14.50;99.90;;;;;;5118949;28;20079;-58
2023/08/27 00:37:58;;;;;;;10.43;8.32;;;14.50;99.90;;;;;;5120934;28;20101;-58
2023/08/27 00:40:28;;;;;;;12.60;9.23;;;14.50;99.90;;;;;;5120641;28;20044;-58
2023/08/27 00:42:53;;;;;;;11.88;8.38;;;14.50;99.90;;;;;;5120013;28;20046;-59
2023/08/27 00:45:19;;;;;;;12.82;8.23;;;14.50;99.90;;;;;;5120959;28;20122;-58
2023/08/27 00:47:45;;;;;;;12.27;9.10;;;14.50;99.90;;;;;;5105760;28;20044;-59
2023/08/27 00:50:11;;;;;;;11.07;9.07;;;14.50;99.90;;;;;;5099158;28;20054;-58
2023/08/27 00:52:37;;;;;;;10.07;8.98;;;14.50;99.90;;;;;;5099673;28;20284;-58
2023/08/27 00:55:04;;;;;;;10.23;8.32;;;14.40;99.90;;;;;;5103862;28;20039;-58
2023/08/27 00:57:31;;;;;;;11.07;8.40;;;14.40;99.90;;;;;;5120066;28;20055;-57
2023/08/27 00:59:58;;;;;;;10.50;8.98;;;14.40;99.90;;;;;;5120158;28;20048;-58
2023/08/27 01:02:24;;;;;;;10.02;8.05;;;14.40;99.90;;;;;;5120689;28;20502;-57
2023/08/27 01:04:50;;;;;;;11.15;8.27;;;14.50;99.90;;;;;;5119080;28;20043;-58
2023/08/27 01:07:46;;;;;;;11.27;8.40;;;14.40;99.90;;;;;;5120490;28;20508;-59
2023/08/27 01:10:24;;;;;;;10.15;8.75;;;14.40;99.90;;;;;;5085093;28;20051;-58
2023/08/27 01:13:04;;;;;;;10.32;8.35;;;14.40;99.90;;;;;;5119830;28;20055;-58
2023/08/27 01:15:31;;;;;;;10.45;8.55;;;14.50;99.90;;;;;;5120525;28;20554;-58
2023/08/27 01:17:59;;;;;;;11.20;8.52;;;14.40;99.90;;;;;;5119081;28;20039;-58
2023/08/27 01:20:26;;;;;;;11.20;8.55;;;14.40;99.90;;;;;;5118467;28;20050;-57
2023/08/27 01:22:52;;;;;;;11.25;8.43;;;14.40;99.90;;;;;;5119431;28;20087;-58
2023/08/27 01:25:22;;;;;;;11.38;8.68;;;14.50;99.90;;;;;;5120153;28;20061;-58
2023/08/27 01:28:06;;;;;;;10.43;8.38;;;14.50;99.90;;;;;;5120003;28;20047;-57
2023/08/27 01:30:51;;;;;;;10.85;8.43;;;14.40;99.90;;;;;;5118647;28;20073;-59
2023/08/27 01:33:23;;;;;;;10.48;7.93;;;14.40;99.90;;;;;;5120379;28;20051;-58
2023/08/27 01:35:49;;;;;;;;;;;14.40;99.90;;;;;;5119687;28;20047;-58
2023/08/27 01:38:15;;;;;;;10.55;8.05;;;14.40;99.90;;;;;;5120203;28;19920;-59
2023/08/27 01:40:41;;;;;;;9.88;7.13;;;14.30;99.90;;;;;;5119633;28;20043;-59
2023/08/27 01:43:06;;;;;;;11.23;7.80;;;14.40;99.90;;;;;;5118950;28;20050;-58
2023/08/27 01:45:32;;;;;;;9.88;7.85;;;14.30;99.90;;;;;;5119918;28;20118;-57
2023/08/27 01:47:58;;;;;;;11.73;8.18;;;14.30;99.90;;;;;;5118428;28;20039;-57
2023/08/27 01:50:23;;;;;;;10.02;8.32;;;14.30;99.90;;;;;;5119802;28;20040;-57
2023/08/27 01:52:49;;;;;;;11.68;8.45;;;14.30;99.90;;;;;;5117136;28;20052;-57
2023/08/27 01:55:15;;;;;;;10.27;8.35;;;14.20;99.90;;;;;;5114735;28;20040;-57
2023/08/27 01:57:41;;;;;;;10.20;7.70;;;14.30;99.90;;;;;;5099079;28;20541;-57
2023/08/27 02:00:09;;;;;;;10.75;8.55;;;14.30;99.90;;;;;;5098215;28;20495;-57
2023/08/27 02:02:38;;;;;;;9.68;8.30;;;14.30;99.90;;;;;;5098815;28;20047;-57
2023/08/27 02:05:07;;;;;;;11.02;8.50;;;14.30;99.90;;;;;;5079665;28;20514;-58
2023/08/27 02:07:38;;;;;;;9.63;8.35;;;14.30;99.90;;;;;;5099721;28;20036;-57
2023/08/27 02:10:08;;;;;;;10.23;7.93;;;14.30;99.90;;;;;;5098146;28;20044;-57
2023/08/27 02:12:34;;;;;;;11.65;8.75;;;14.20;99.90;;;;;;5099048;28;20083;-57
2023/08/27 02:15:03;;;;;;;9.00;7.47;;;14.20;99.90;;;;;;5098810;28;20048;-57
2023/08/27 02:17:28;;;;;;;9.70;8.07;;;14.20;99.90;;;;;;5098165;28;20075;-57
2023/08/27 02:19:54;;;;;;;9.75;8.20;;;14.20;99.90;;;;;;5099040;28;20051;-58
2023/08/27 02:22:20;;;;;;;10.27;7.68;;;14.20;99.90;;;;;;5097603;28;20058;-57
2023/08/27 02:24:45;;;;;;;9.30;7.90;;;14.20;99.90;;;;;;5099245;28;20105;-57
2023/08/27 02:27:11;;;;;;;9.77;8.05;;;14.10;99.90;;;;;;5097726;28;20093;-57
2023/08/27 02:29:37;;;;;;;10.35;8.48;;;14.20;99.90;;;;;;5099234;28;20040;-57
2023/08/27 02:32:03;;;;;;;10.13;7.72;;;14.20;99.90;;;;;;5098561;28;20078;-57
2023/08/27 02:34:28;;;;;;;10.05;7.78;;;14.10;99.90;;;;;;5098337;28;20119;-57
2023/08/27 02:36:54;;;;;;;10.13;7.85;;;14.10;99.90;;;;;;5099007;28;20138;-57
2023/08/27 02:39:20;;;;;;;12.30;8.35;;;14.10;99.90;;;;;;5097422;28;20097;-58
2023/08/27 02:41:45;;;;;;;9.23;7.25;;;14.10;99.90;;;;;;5098986;28;20487;-57
2023/08/27 02:44:11;;;;;;;9.23;7.65;;;14.10;99.90;;;;;;5096320;28;20040;-56
2023/08/27 02:46:37;;;;;;;9.60;7.88;;;14.00;99.90;;;;;;5098978;28;20040;-58
2023/08/27 02:49:02;;;;;;;10.57;8.25;;;14.00;99.90;;;;;;5098042;28;20067;-59
2023/08/27 02:51:28;;;;;;;10.50;8.48;;;14.00;99.90;;;;;;5098315;28;20053;-55
2023/08/27 02:53:55;;;;;;;9.40;7.55;;;14.00;99.90;;;;;;5099080;28;20036;-57
2023/08/27 02:56:21;;;;;;;11.43;7.65;;;13.90;99.90;;;;;;5111796;28;20079;-58
2023/08/27 02:58:50;;;;;;;9.85;7.38;;;13.90;99.90;;;;;;5119423;28;20574;-57
2023/08/27 03:01:23;;;;;;;10.27;7.40;;;13.90;99.90;;;;;;5117954;28;20035;-57
2023/08/27 03:03:49;;;;;;;10.30;7.22;;;13.90;99.90;;;;;;5119259;28;20554;-57
2023/08/27 03:06:15;;;;;;;9.63;8.00;;;13.90;99.90;;;;;;5118785;28;20048;-57
2023/08/27 03:08:41;;;;;;;12.00;7.75;;;13.90;99.90;;;;;;5118253;28;20040;-57
2023/08/27 03:11:07;;;;;;;11.95;7.72;;;13.80;99.90;;;;;;5119084;28;20609;-57
2023/08/27 03:13:33;;;;;;;10.25;7.88;;;13.80;99.90;;;;;;5119210;28;20047;-58
2023/08/27 03:15:58;;;;;;;9.57;7.60;;;13.80;99.90;;;;;;5122844;28;20105;-57
2023/08/27 03:18:24;;;;;;;10.65;8.57;;;13.80;99.90;;;;;;5121467;28;20048;-57
2023/08/27 03:20:51;;;;;;;10.77;7.72;;;13.80;99.90;;;;;;5122836;28;20527;-57
2023/08/27 03:23:17;;;;;;;9.68;7.53;;;13.80;99.90;;;;;;5122025;28;20048;-56
2023/08/27 03:25:43;;;;;;;11.02;8.52;;;13.80;99.90;;;;;;5121804;28;20039;-57
2023/08/27 03:28:09;;;;;;;11.45;8.25;;;13.70;99.90;;;;;;5121268;28;20054;-58
2023/08/27 03:30:35;;;;;;;9.35;8.00;;;13.70;99.90;;;;;;5121229;28;20032;-57
2023/08/27 03:33:00;;;;;;;9.45;7.40;;;13.70;99.90;;;;;;5122565;28;20078;-55
2023/08/27 03:35:26;;;;;;;10.25;7.55;;;13.70;99.90;;;;;;5121087;27;20047;-57
2023/08/27 03:37:52;;;;;;;10.75;7.65;;;13.70;99.90;;;;;;5122576;28;20036;-56
2023/08/27 03:40:17;;;;;;;10.30;7.70;;;13.70;99.90;;;;;;5121823;28;20054;-57
2023/08/27 03:42:43;;;;;;;10.38;7.82;;;13.70;99.90;;;;;;5121907;28;20046;-57
2023/08/27 03:45:09;;;;;;;12.05;7.65;;;13.60;99.90;;;;;;5122396;28;20483;-58
2023/08/27 03:47:35;;;;;;;10.35;7.80;;;13.80;99.90;;;;;;5120898;28;20089;-57
2023/08/27 03:50:00;;;;;;;11.05;8.15;;;13.80;99.90;;;;;;5122069;28;20040;-58
2023/08/27 03:52:27;;;;;;;13.25;7.95;;;13.80;99.90;;;;;;5120183;28;20062;-56
2023/08/27 03:54:52;;;;;;;10.32;8.02;;;13.90;99.90;;;;;;5120429;27;20100;-57
2023/08/27 03:57:18;;;;;;;10.38;8.10;;;13.90;99.90;;;;;;5100357;28;20048;-56
2023/08/27 03:59:44;;;;;;;10.48;7.45;;;13.90;99.90;;;;;;5100207;28;20036;-57
2023/08/27 04:02:10;;;;;;;9.43;8.10;;;13.90;99.90;;;;;;5100892;28;20048;-56
2023/08/27 04:04:35;;;;;;;10.48;8.10;;;13.90;99.90;;;;;;5100443;28;20119;-57
2023/08/27 04:07:01;;;;;;;11.93;8.00;;;13.90;99.90;;;;;;5101032;28;20101;-57
2023/08/27 04:09:27;;;;;;;10.63;8.20;;;14.00;99.90;;;;;;5100137;28;20083;-57
2023/08/27 04:11:53;;;;;;;10.80;7.90;;;13.90;99.90;;;;;;5101131;28;20060;-56
2023/08/27 04:14:18;;;;;;;11.32;8.18;;;13.90;99.90;;;;;;5100067;28;20048;-56
2023/08/27 04:16:44;;;;;;;11.45;8.50;;;13.80;99.90;;;;;;5101170;28;20104;-56
2023/08/27 04:19:10;;;;;;;9.88;7.90;;;14.00;99.90;;;;;;5100524;28;20040;-56
2023/08/27 04:21:36;;;;;;;11.55;8.68;;;13.90;99.90;;;;;;5100270;28;20052;-57
2023/08/27 04:24:02;;;;;;;11.38;8.15;;;14.00;99.90;;;;;;5100644;28;20119;-56
2023/08/27 04:26:27;;;;;;;11.75;8.68;;;13.90;99.90;;;;;;5099717;28;20151;-55
2023/08/27 04:28:54;;;;;;;11.68;8.43;;;14.00;99.90;;;;;;5101120;28;20062;-57
2023/08/27 04:31:21;;;;;;;11.98;8.95;;;14.00;99.90;;;;;;5099608;28;20488;-56
2023/08/27 04:33:46;;;;;;;11.85;8.68;;;13.90;99.90;;;;;;5099948;28;20047;-57
2023/08/27 04:36:12;;;;;;;14.68;8.13;;;14.10;99.90;;;;;;5100074;28;20062;-60
2023/08/27 04:38:38;;;;;;;11.40;9.10;;;14.10;99.90;;;;;;5098817;28;20522;-57
2023/08/27 04:41:04;;;;;;;11.20;8.73;;;13.90;99.90;;;;;;5100521;28;20085;-57
2023/08/27 04:43:30;;;;;;;10.57;8.18;;;14.00;99.90;;;;;;5099532;28;20097;-57
2023/08/27 04:45:55;;;;;;;12.02;8.90;;;13.90;99.90;;;;;;5100759;28;20059;-57
2023/08/27 04:48:21;;;;;;;11.65;9.35;;;13.90;99.90;;;;;;5099301;28;20559;-57
2023/08/27 04:50:47;;;;;;;13.27;9.05;;;13.90;99.90;;;;;;5100739;28;20122;-57
2023/08/27 04:53:13;;;;;;;10.90;8.00;;;13.90;99.90;;;;;;5098255;28;20048;-56
2023/08/27 04:55:39;;;;;;;11.95;8.68;;;13.90;99.90;;;;;;5108657;28;20127;-57
2023/08/27 04:58:04;;;;;;;10.65;8.30;;;13.90;99.90;;;;;;5120577;28;20036;-56
2023/08/27 05:00:31;;;;;;;11.90;8.65;;;13.80;99.90;;;;;;5119663;28;20456;-57
2023/08/27 05:02:57;;;;;;;11.70;9.63;;;13.90;99.90;;;;;;5120363;28;20483;-57
2023/08/27 05:05:23;;;;;;;11.23;8.05;;;13.80;99.90;;;;;;5119635;28;20046;-57
2023/08/27 05:07:48;;;;;;;12.45;8.05;;;13.90;99.90;;;;;;5120739;28;20052;-56
2023/08/27 05:10:14;;;;;;;12.93;8.35;;;13.80;99.90;;;;;;5119836;28;20126;-56
2023/08/27 05:12:40;;;;;;;14.95;8.70;;;13.90;99.90;;;;;;5119695;28;20047;-57
2023/08/27 05:15:06;;;;;;;11.35;8.93;;;13.90;99.90;;;;;;5120452;28;20549;-57
2023/08/27 05:17:32;;;;;;;12.57;8.73;;;13.80;99.90;;;;;;5119114;28;20062;-57
2023/08/27 05:19:58;;;;;;;11.32;7.68;;;13.90;99.90;;;;;;5120103;28;20043;-57
2023/08/27 05:22:23;;;;;;;12.35;7.78;;;14.00;99.90;;;;;;5119443;28;20376;-58
2023/08/27 05:24:49;;;;;;;11.38;8.50;;;13.90;99.90;;;;;;5119941;28;20049;-57
2023/08/27 05:27:15;;;;;;;11.15;8.35;;;14.00;99.90;;;;;;5119347;28;20035;-56
2023/08/27 05:29:40;;;;;;;10.70;8.10;;;14.10;99.90;;;;;;5119949;28;20039;-57
2023/08/27 05:32:06;;;;;;;12.85;8.32;;;14.10;99.90;;;;;;5114452;28;20074;-57
2023/08/27 05:34:32;;;;;;;11.30;7.93;;;14.10;99.90;;;;;;5113604;28;20051;-57
2023/08/27 05:36:58;;;;;;;11.30;8.30;;;14.30;99.90;;;;;;5115768;28;20054;-57
2023/08/27 05:39:24;;;;;;;10.25;8.10;;;14.40;99.90;;;;;;5114926;28;20111;-57
2023/08/27 05:41:50;;;;;;;12.80;8.32;;;14.50;99.90;;;;;;5116217;28;20462;-56
2023/08/27 05:44:16;;;;;;;12.13;8.35;;;14.50;99.90;;;;;;5109981;28;20316;-56
2023/08/27 05:46:42;;;;;;;11.95;7.70;;;14.50;99.90;;;;;;5105313;28;20115;-57
2023/08/27 05:49:08;;;;;;;10.98;8.00;;;14.70;99.90;;;;;;5101618;28;20482;-56
2023/08/27 05:51:34;;;;;;;9.98;7.28;;;14.70;99.90;;;;;;5094917;28;20079;-57
2023/08/27 05:53:59;;;;;;;10.90;8.68;;;14.60;99.90;;;;;;5095145;28;20517;-57
2023/08/27 05:56:27;;;;;;;9.98;7.38;;;14.60;99.90;;;;;;5109386;28;20071;-56
2023/08/27 05:58:53;;;;;;;10.55;8.50;;;14.60;99.90;;;;;;5114847;28;20063;-57
2023/08/27 06:01:19;;;;;;;10.68;7.60;;;14.60;99.90;;;;;;5114573;28;20479;-57
2023/08/27 06:03:44;;;;;;;10.38;7.82;;;14.60;99.90;;;;;;5105390;28;20063;-57
2023/08/27 06:06:10;;;;;;;10.43;8.07;;;14.50;99.90;;;;;;5103572;28;20036;-57
2023/08/27 06:08:36;;;;;;;10.48;7.75;;;14.50;99.90;;;;;;5099552;28;20036;-58
2023/08/27 06:11:04;;;;;;;11.48;8.35;;;14.50;99.90;;;;;;5105831;28;20035;-57
2023/08/27 06:13:32;;;;;;;12.55;9.18;;;14.50;99.90;;;;;;5103383;28;20064;-57
2023/08/27 06:15:58;;;;;;;12.90;9.00;;;14.50;99.90;;;;;;5107656;28;20119;-58
2023/08/27 06:18:23;;;;;;;13.55;9.23;;;14.40;99.90;;;;;;5103506;28;20157;-57
2023/08/27 06:20:49;;;;;;;11.23;8.27;;;14.60;99.90;;;;;;5105685;28;20834;-57
2023/08/27 06:23:15;;;;;;;12.32;9.10;;;14.60;99.90;;;;;;5103661;28;20047;-57
2023/08/27 06:25:41;;;;;;;12.70;8.73;;;14.60;99.90;;;;;;5103302;28;20135;-59
2023/08/27 06:28:07;;;;;;;14.45;9.45;;;14.60;99.90;;;;;;5105177;28;20122;-57
2023/08/27 06:30:33;;;;;;;12.57;7.80;;;14.70;99.90;;;;;;5101886;28;20050;-57
2023/08/27 06:32:59;;;;;;;10.48;8.02;;;14.60;99.90;;;;;;5104019;28;20054;-57
2023/08/27 06:35:25;;;;;;;10.77;8.05;;;14.70;99.90;;;;;;5094867;28;20044;-57
2023/08/27 06:37:51;;;;;;;9.93;7.35;;;14.70;99.90;;;;;;5095369;28;20040;-57
2023/08/27 06:40:16;;;;;;;11.23;7.43;;;14.80;99.90;;;;;;5093063;28;20148;-56
2023/08/27 06:42:42;;;;;;;10.93;7.97;;;14.70;99.90;;;;;;5094250;28;20044;-57
2023/08/27 06:45:09;;;;;;;10.85;8.10;;;14.70;99.90;;;;;;5095035;28;20079;-57
2023/08/27 06:47:35;;;;;;;10.93;7.47;;;14.80;99.90;;;;;;5094130;28;20039;-57
2023/08/27 06:50:04;;;;;;;10.35;7.50;;;14.80;99.90;;;;;;5098868;28;20055;-57
2023/08/27 06:52:31;;;;;;;11.43;7.95;;;14.80;99.90;;;;;;5097832;28;20075;-57
2023/08/27 06:54:58;;;;;;;10.70;7.38;;;14.90;99.90;;;;;;5101065;28;20440;-57
2023/08/27 06:57:23;;;;;;;11.75;7.95;;;14.90;99.90;;;;;;5098209;28;20056;-57
2023/08/27 06:59:49;;;;;;;11.00;8.02;;;14.80;99.90;;;;;;5098057;28;20059;-57
2023/08/27 07:02:15;;;;;;;11.15;8.00;;;14.90;99.90;;;;;;5098754;28;20132;-63
2023/08/27 07:04:40;;;;;;;12.07;7.45;;;14.90;99.90;;;;;;5097365;28;20036;-57
2023/08/27 07:07:07;;;;;;;10.90;7.72;;;14.90;99.90;;;;;;5098520;28;20040;-57
2023/08/27 07:09:32;;;;;;;12.25;8.10;;;14.90;99.90;;;;;;5097701;28;20052;-57
2023/08/27 07:11:58;;;;;;;11.48;7.72;;;15.10;99.90;;;;;;5098889;28;20504;-57
2023/08/27 07:14:24;;;;;;;13.38;8.02;;;15.20;99.90;;;;;;5097908;28;20562;-57
2023/08/27 07:16:49;;;;;;;11.10;7.60;;;15.10;99.90;;;;;;5098499;28;20058;-57
2023/08/27 07:19:15;;;;;;;14.48;8.48;;;15.10;99.90;;;;;;5097949;28;20078;-57
2023/08/27 07:21:41;;;;;;;12.05;7.55;;;15.10;99.90;;;;;;5096982;28;20565;-57
2023/08/27 07:24:07;;;;;;;11.48;7.57;;;15.00;99.90;;;;;;5096625;28;20059;-58
2023/08/27 07:26:32;;;;;;;12.88;7.20;;;15.10;99.90;;;;;;5096760;28;20051;-57
2023/08/27 07:28:58;;;;;;;11.38;7.10;;;15.20;99.90;;;;;;5098340;28;20227;-57
2023/08/27 07:31:24;;;;;;;10.77;7.15;;;15.20;99.90;;;;;;5097216;28;20077;-57
2023/08/27 07:33:50;;;;;;;10.75;7.13;;;15.20;99.90;;;;;;5098346;28;20043;-57
2023/08/27 07:36:15;;;;;;;10.57;6.75;;;15.30;99.90;;;;;;5097679;28;20062;-58
2023/08/27 07:38:42;;;;;;;11.60;6.63;;;15.30;99.90;;;;;;5096966;28;20043;-57
2023/08/27 07:41:11;;;;;;;9.48;6.95;;;15.50;99.90;;;;;;5096402;28;20082;-58
2023/08/27 07:43:37;;;;;;;10.73;6.78;;;15.70;99.90;;;;;;5096340;28;20094;-58
2023/08/27 07:46:03;;;;;;;11.15;7.50;;;15.70;99.90;;;;;;5098088;28;20036;-58
2023/08/27 07:48:29;;;;;;;10.75;7.00;;;15.70;99.90;;;;;;5096565;28;20040;-58
2023/08/27 07:50:56;;;;;;;12.80;6.55;;;15.70;99.90;;;;;;5097515;28;20099;-57
2023/08/27 07:53:22;;;;;;;13.73;7.00;;;15.50;99.90;;;;;;5097569;28;20111;-57
2023/08/27 07:55:47;;;;;;;11.70;6.63;;;15.40;99.90;;;;;;5096180;28;20153;-57
2023/08/27 07:58:13;;;;;;;10.85;6.25;;;15.40;99.90;;;;;;5098108;28;20040;-57
2023/08/27 08:00:39;;;;;;;10.05;6.78;;;15.50;99.90;;;;;;5105977;28;20052;-57
2023/08/27 08:03:05;;;;;;;11.25;6.43;;;15.50;99.90;;;;;;5097683;28;20659;-57
2023/08/27 08:05:31;;;;;;;11.02;6.22;;;15.80;99.90;;;;;;5096312;28;20079;-57
2023/08/27 08:07:56;;;;;;;10.77;6.68;;;15.90;99.90;;;;;;5096496;28;20076;-57
2023/08/27 08:10:22;;;;;;;11.00;6.70;;;15.90;99.90;;;;;;5096937;28;20040;-57
2023/08/27 08:12:49;;;;;;;10.82;6.13;;;16.10;99.90;;;;;;5096525;28;20108;-57
2023/08/27 08:15:15;;;;;;;9.90;5.93;;;16.20;99.90;;;;;;5097044;28;20091;-57
2023/08/27 08:17:42;;;;;;;10.70;5.72;;;16.20;99.90;;;;;;5096220;28;20085;-57
2023/08/27 08:20:08;;;;;;;9.52;5.32;;;16.20;99.90;;;;;;5098805;28;20047;-56
2023/08/27 08:22:34;;;;;;;9.80;5.60;;;16.20;99.90;;;;;;5094597;28;20187;-57
2023/08/27 08:24:59;;;;;;;8.75;5.15;;;16.30;99.90;;;;;;5097479;28;20052;-56
2023/08/27 08:27:25;;;;;;;9.07;5.40;;;16.60;99.90;;;;;;5096358;28;20050;-57
2023/08/27 08:29:51;;;;;;;9.02;5.20;;;16.60;99.90;;;;;;5096371;28;20099;-57
2023/08/27 08:32:16;;;;;;;7.00;4.53;;;16.90;99.90;;;;;;5096715;28;20040;-57
2023/08/27 08:34:42;;;;;;;8.65;4.63;;;16.80;99.90;;;;;;5083874;28;20129;-57
2023/08/27 08:37:08;;;;;;;7.82;4.45;;;16.80;99.90;;;;;;5094357;28;20040;-57
2023/08/27 08:39:34;;;;;;;9.80;4.43;;;17.20;99.90;;;;;;5098434;28;20213;-57
2023/08/27 08:42:06;;;;;;;9.02;4.72;;;17.00;99.90;;;;;;5085772;28;20075;-57
2023/08/27 08:44:39;;;;;;;7.65;4.20;;;17.00;99.90;;;;;;5083425;28;20045;-57
2023/08/27 08:47:09;;;;;;;6.28;3.58;;;17.10;99.90;;;;;;5084514;28;20486;-57
2023/08/27 08:49:38;;;;;;;7.45;3.88;;;17.10;99.90;;;;;;5083648;28;20040;-57
2023/08/27 08:52:09;;;;;;;7.32;3.90;;;17.30;99.90;;;;;;5095269;28;20374;-57
2023/08/27 08:54:40;;;;;;;6.40;3.85;;;17.30;99.30;;;;;;5094825;28;20044;-57
2023/08/27 08:57:09;;;;;;;7.47;3.58;;;17.50;99.90;;;;;;5074891;28;20102;-57
2023/08/27 08:59:36;;;;;;;8.80;3.50;;;17.40;99.90;;;;;;5076134;28;20056;-57
2023/08/27 09:02:01;;;;;;;5.45;3.00;;;17.50;99.90;;;;;;5075830;28;20115;-56
2023/08/27 09:04:28;;;;;;;6.45;2.92;;;17.20;94.90;;;;;;5073821;28;20087;-56
2023/08/27 09:06:55;;;;;;;7.15;3.10;;;17.10;95.70;;;;;;5075609;28;20321;-57
2023/08/27 09:09:23;;;;;;;7.60;3.03;;;17.30;94.30;;;;;;5075363;28;20048;-57
2023/08/27 09:11:50;;;;;;;6.25;2.80;;;17.50;94.30;;;;;;5075166;28;20049;-57
2023/08/27 09:14:16;;;;;;;7.03;2.90;;;17.60;91.90;;;;;;5074612;28;20056;-57
2023/08/27 09:16:42;;;;;;;8.70;4.07;;;17.80;93.20;;;;;;5075596;28;20630;-57
2023/08/27 09:19:08;;;;;;;6.47;2.78;;;17.40;83.50;;;;;;5074981;28;20037;-57
2023/08/27 09:21:34;;;;;;;6.05;3.17;;;17.50;85.00;;;;;;5074026;28;20518;-57
2023/08/27 09:24:00;;;;;;;6.18;2.53;;;17.40;82.10;;;;;;5076165;28;20544;-57
2023/08/27 09:26:26;;;;;;;5.65;2.45;;;17.60;83.40;;;;;;5106015;28;20028;-56
2023/08/27 09:28:54;;;;;;;5.60;2.58;;;17.80;90.60;;;;;;5116475;28;20039;-57
2023/08/27 09:31:40;;;;;;;6.70;2.85;;;17.70;89.30;;;;;;5114753;28;20048;-58
2023/08/27 09:34:06;;;;;;;8.02;3.40;;;17.60;86.50;;;;;;5115454;28;20063;-57
2023/08/27 09:36:34;;;;;;;5.22;2.47;;;17.60;81.30;;;;;;5115912;28;20052;-57
2023/08/27 09:39:07;;;;;;;4.75;2.03;;;17.60;82.20;;;;;;5114834;28;20053;-57
2023/08/27 09:41:42;;;;;;;4.95;2.30;;;17.80;81.50;;;;;;5116051;28;20046;-57
2023/08/27 09:44:09;;;;;;;7.82;3.33;;;18.00;82.70;;;;;;5114971;28;20071;-57
2023/08/27 09:46:36;;;;;;;7.03;2.45;;;18.00;79.20;;;;;;5115861;28;20043;-58
2023/08/27 09:49:07;;;;;;;5.20;2.05;;;18.30;69.00;;;;;;5095598;28;20040;-57
2023/08/27 09:51:34;;;;;;;5.60;2.50;;;18.50;73.00;;;;;;5094581;28;20078;-58
2023/08/27 09:54:00;;;;;;;5.28;2.28;;;18.40;64.00;;;;;;5095542;28;20040;-57
2023/08/27 09:56:27;;;;;;;5.07;1.90;;;18.70;66.20;;;;;;5109633;28;20084;-58
2023/08/27 09:58:54;;;;;;;4.45;1.90;;;18.90;59.00;;;;;;5116087;28;20079;-58
2023/08/27 10:01:25;;;;;;;4.85;1.60;;;18.90;42.80;;;;;;5114665;28;20040;-58
2023/08/27 10:03:51;;;;;;;4.78;1.88;;;19.10;46.00;;;;;;5117486;28;20046;-58
2023/08/27 10:06:17;;;;;;;4.53;1.65;;;18.90;31.80;;;;;;5119435;28;20032;-59
2023/08/27 10:08:47;;;;;;;3.78;1.40;;;19.10;40.80;;;;;;5117677;28;20078;-58
2023/08/27 10:11:15;;;;;;;4.35;1.60;;;19.10;37.20;;;;;;5119525;28;20090;-58
2023/08/27 10:13:43;;;;;;;5.22;1.88;;;19.20;36.50;;;;;;5116771;28;20063;-58
2023/08/27 10:16:10;;;;;;;4.10;1.38;;;18.90;29.60;;;;;;5119634;28;20066;-58
2023/08/27 10:18:38;;;;;;;5.72;1.67;;;19.00;33.50;;;;;;5118467;28;20103;-58
2023/08/27 10:21:04;;;;;;;3.80;1.50;;;19.10;26.50;;;;;;5119119;28;20043;-58
2023/08/27 10:23:31;;;;;;;5.70;1.52;;;19.10;34.20;;;;;;5122289;28;20031;-58
2023/08/27 10:25:59;;;;;;;4.30;1.67;;;19.10;34.00;;;;;;5121676;28;20032;-58
2023/08/27 10:28:26;;;;;;;4.45;1.52;;;19.10;34.40;;;;;;5122962;28;20081;-59
2023/08/27 10:30:52;;;;;;;4.45;1.75;;;19.30;35.90;;;;;;5122146;28;20036;-58
2023/08/27 10:33:18;;;;;;;5.93;1.98;;;19.40;32.20;;;;;;5123796;28;20054;-58
2023/08/27 10:35:47;;;;;;;5.38;2.10;;;19.40;32.30;;;;;;5122288;28;20437;-58
2023/08/27 10:38:15;;;;;;;6.15;2.92;;;19.50;29.40;;;;;;5123108;28;20064;-58
2023/08/27 10:40:43;;;;;;;5.05;1.85;;;19.50;28.90;;;;;;5122901;28;20036;-57
2023/08/27 10:43:17;;;;;;;6.13;3.20;;;19.50;26.30;;;;;;5122149;28;20122;-58
2023/08/27 10:45:44;;;;;;;6.55;2.40;;;19.50;27.90;;;;;;5123643;28;20051;-58
2023/08/27 10:48:25;;;;;;;6.60;2.65;;;19.30;29.30;;;;;;5110444;28;20183;-58
2023/08/27 10:50:55;;;;;;;6.30;2.10;;;19.10;35.90;;;;;;5110641;28;20024;-57
2023/08/27 10:53:22;;;;;;;5.45;2.13;;;19.10;36.50;;;;;;5096009;28;20044;-58
2023/08/27 10:55:50;;;;;;;4.95;2.03;;;19.50;31.90;;;;;;5092709;28;20079;-61
2023/08/27 10:58:24;;;;;;;5.10;1.98;;;19.70;39.40;;;;;;5094637;28;20100;-59
2023/08/27 11:01:09;;;;;;;7.38;2.20;;;19.70;27.50;;;;;;5109020;27;20040;-59
2023/08/27 11:03:51;;;;;;;5.40;2.25;;;19.80;24.90;;;;;;5108128;28;20040;-58
2023/08/27 11:06:17;;;;;;;6.05;2.28;;;19.70;22.70;;;;;;5108957;28;20072;-58
2023/08/27 11:08:43;;;;;;;5.03;2.20;;;19.60;22.10;;;;;;5109903;28;20052;-59
2023/08/27 11:11:16;;;;;;;4.63;1.63;;;19.40;23.70;;;;;;5104703;28;20506;-57
2023/08/27 11:13:42;;;;;;;5.05;1.08;;;18.90;23.70;;;;;;5112968;28;20059;-58
2023/08/27 11:16:13;;;;;;;3.25;1.20;;;17.60;19.60;;;;;;5100602;28;20125;-58
2023/08/27 11:18:50;;;;;;;4.03;1.20;;;17.20;29.30;;;;;;5101178;28;20554;-57
2023/08/27 11:21:44;;;;;;;4.43;1.10;;;16.70;56.10;;;;;;5101854;28;20040;-58
2023/08/27 11:24:17;;;;;;;5.40;1.70;;;16.50;65.10;;;;;;5095601;28;20078;-58
2023/08/27 11:26:45;;;;;;;4.70;1.95;;;16.20;91.50;;;;;;5100546;28;20104;-72
2023/08/27 11:29:11;;;;;;;4.72;1.80;;;15.30;99.90;;;;;;5102401;28;20827;-67
2023/08/27 11:31:41;;;;;;;7.13;1.70;;;14.80;99.90;;;;;;5101325;28;20067;-67
2023/08/27 11:34:10;;;;;;;5.65;2.10;;;14.90;99.90;;;;;;5099135;28;20074;-69
2023/08/27 11:36:37;;;;;;;4.32;1.88;;;14.90;99.90;;;;;;5101715;28;20177;-67
2023/08/27 11:39:05;;;;;;;6.88;1.90;;;15.00;99.90;;;;;;5100745;28;20051;-67
2023/08/27 11:41:39;;;;;;;4.47;1.42;;;15.20;99.90;;;;;;5100008;28;20043;-63
2023/08/27 11:44:06;;;;;;;3.55;1.20;;;15.40;99.90;;;;;;5100575;28;20051;-61
2023/08/27 11:46:33;;;;;;;3.50;1.10;;;15.70;97.70;;;;;;5106267;28;20439;-60
2023/08/27 11:48:59;;;;;;;3.17;1.17;;;15.70;94.30;;;;;;5114984;28;20514;-59
2023/08/27 11:51:26;;;;;;;3.75;1.42;;;15.90;99.90;;;;;;5121170;28;20063;-59
2023/08/27 11:53:52;;;;;;;4.15;1.45;;;15.90;99.90;;;;;;5122107;28;20086;-59
2023/08/27 11:56:18;;;;;;;4.78;1.55;;;16.20;98.30;;;;;;5106477;28;20051;-59
2023/08/27 11:58:52;;;;;;;4.28;1.30;;;15.90;99.90;;;;;;5101205;28;20052;-59
2023/08/27 12:01:20;;;;;;;3.58;1.38;;;15.90;99.90;;;;;;5100909;28;20103;-59
2023/08/27 12:03:51;;;;;;;5.53;1.63;;;15.80;99.90;;;;;;5100992;28;20044;-59
2023/08/27 12:06:19;;;;;;;4.38;1.30;;;15.50;99.90;;;;;;5100846;28;20117;-57
2023/08/27 12:08:51;;;;;;;4.82;1.30;;;15.30;99.90;;;;;;5100245;28;20043;-59
2023/08/27 12:11:19;;;;;;;4.20;1.10;;;15.10;99.90;;;;;;5101156;28;20044;-58
2023/08/27 12:13:53;;;;;;;5.20;1.75;;;15.00;99.90;;;;;;5094639;28;20044;-59
2023/08/27 12:16:33;;;;;;;4.60;1.13;;;15.00;99.90;;;;;;5097610;28;20171;-59
2023/08/27 12:19:05;;;;;;;3.22;1.00;;;15.10;99.90;;;;;;5096969;28;20417;-68
2023/08/27 12:21:51;;;;;;;4.13;1.05;;;14.90;99.90;;;;;;5095543;28;20090;-69
2023/08/27 12:24:39;;;;;;;3.20;1.00;;;14.80;99.90;;;;;;5096990;28;20131;-66
2023/08/27 12:27:10;;;;;;;1.85;0.82;;;14.80;99.90;;;;;;5096465;28;20076;-64
2023/08/27 12:29:40;;;;;;;3.28;0.90;;;14.60;99.90;;;;;;5096730;28;20055;-61
2023/08/27 12:32:17;;;;;;;2.35;0.90;;;14.70;99.90;;;;;;5097108;28;20545;-61
2023/08/27 12:34:50;;;;;;;3.53;1.00;;;14.70;99.90;;;;;;5096057;28;20079;-60
2023/08/27 12:37:18;;;;;;;4.00;0.88;;;14.80;99.90;;;;;;5096939;28;20043;-59
2023/08/27 12:39:45;;;;;;;3.42;0.90;;;14.80;99.90;;;;;;5095856;28;20517;-59
2023/08/27 12:42:17;;;;;;;2.28;0.80;;;14.90;99.90;;;;;;5097159;28;20048;-59